Time;durP1;ratioP1;P1;durP2;ratioP2;P2;SDS_P1;SDS_P2;PMS_P1;PMS_P2;Temp;Humidity;BMP_temperature;BMP_pressure;BME280_temperature;BME280_humidity;BME280_pressure;Samples;Min_cycle;Max_cycle;Signal;HPM_P1;HPM_P2
2024/01/30 00:01:20;;;;;;;3.17;2.87;;;;;;;;;;5111788;28;20207;-76
2024/01/30 00:03:47;;;;;;;4.50;4.10;;;;;;;;;;5111808;28;20674;-76
2024/01/30 00:06:14;;;;;;;6.40;3.93;;;;;;;;;;5112163;28;20195;-76
2024/01/30 00:08:41;;;;;;;7.47;4.20;;;;;;;;;;5112015;28;20723;-76
2024/01/30 00:11:10;;;;;;;5.30;4.13;;;;;;;;;;5111026;28;20601;-77
2024/01/30 00:13:37;;;;;;;6.77;4.57;;;;;;;;;;5111848;28;20210;-77
2024/01/30 00:16:04;;;;;;;3.53;3.13;;;;;;;;;;5111529;28;20199;-76
2024/01/30 00:18:31;;;;;;;4.97;3.90;;;;;;;;;;5111575;28;20210;-76
2024/01/30 00:21:01;;;;;;;7.03;4.67;;;;;;;;;;5110842;28;20721;-77
2024/01/30 00:23:27;;;;;;;5.57;4.07;;;;;;;;;;5111249;28;20210;-77
2024/01/30 00:25:56;;;;;;;5.57;3.60;;;;;;;;;;5111531;28;20203;-76
2024/01/30 00:28:24;;;;;;;4.57;4.17;;;;;;;;;;5111227;28;20286;-77
2024/01/30 00:30:50;;;;;;;6.47;4.70;;;;;;;;;;5097632;28;20713;-76
2024/01/30 00:33:17;;;;;;;6.33;4.30;;;;;;;;;;5111962;28;20212;-77
2024/01/30 00:35:44;;;;;;;5.60;4.60;;;;;;;;;;5097750;28;20661;-77
2024/01/30 00:38:11;;;;;;;6.00;4.37;;;;;;;;;;5111033;28;20260;-76
2024/01/30 00:40:38;;;;;;;5.60;4.27;;;;;;;;;;5111498;28;20199;-76
2024/01/30 00:43:05;;;;;;;5.27;4.50;;;;;;;;;;5110962;28;20271;-76
2024/01/30 00:45:33;;;;;;;5.67;4.33;;;;;;;;;;5110511;28;20673;-76
2024/01/30 00:48:00;;;;;;;6.20;4.80;;;;;;;;;;5111421;28;20215;-77
2024/01/30 00:50:27;;;;;;;6.73;4.77;;;;;;;;;;5111112;28;20242;-77
2024/01/30 00:52:53;;;;;;;6.60;4.77;;;;;;;;;;5110997;28;20623;-77
2024/01/30 00:55:20;;;;;;;5.50;4.40;;;;;;;;;;5110756;28;20200;-77
2024/01/30 00:57:48;;;;;;;8.57;5.23;;;;;;;;;;5111172;28;20203;-77
2024/01/30 01:00:16;;;;;;;4.30;3.83;;;;;;;;;;5110635;28;20278;-76
2024/01/30 01:02:45;;;;;;;5.10;3.60;;;;;;;;;;5110478;28;20211;-76
2024/01/30 01:05:12;;;;;;;6.17;4.27;;;;;;;;;;5110985;28;20208;-77
2024/01/30 01:07:40;;;;;;;7.33;5.17;;;;;;;;;;5111033;28;20195;-76
2024/01/30 01:10:08;;;;;;;6.13;5.10;;;;;;;;;;5110447;28;20227;-77
2024/01/30 01:12:35;;;;;;;4.57;4.07;;;;;;;;;;5111225;28;20199;-76
2024/01/30 01:15:02;;;;;;;6.23;4.23;;;;;;;;;;5111021;28;20199;-77
2024/01/30 01:17:29;;;;;;;7.00;4.90;;;;;;;;;;5110741;28;20199;-77
2024/01/30 01:19:57;;;;;;;7.53;5.07;;;;;;;;;;5110623;28;20203;-77
2024/01/30 01:22:24;;;;;;;6.17;4.23;;;;;;;;;;5110250;28;20671;-77
2024/01/30 01:24:50;;;;;;;8.00;6.13;;;;;;;;;;5111372;28;20595;-77
2024/01/30 01:27:17;;;;;;;5.17;4.00;;;;;;;;;;5110883;28;20582;-77
2024/01/30 01:29:45;;;;;;;5.27;4.20;;;;;;;;;;5110357;28;20701;-76
2024/01/30 01:32:12;;;;;;;5.07;4.40;;;;;;;;;;5111224;28;20227;-77
2024/01/30 01:34:38;;;;;;;6.07;4.07;;;;;;;;;;5111047;28;20200;-76
2024/01/30 01:37:07;;;;;;;5.90;4.13;;;;;;;;;;5110666;28;20694;-76
2024/01/30 01:39:34;;;;;;;3.57;3.23;;;;;;;;;;5110550;28;20203;-76
2024/01/30 01:42:00;;;;;;;4.97;3.83;;;;;;;;;;5110574;28;20206;-77
2024/01/30 01:44:28;;;;;;;8.07;4.07;;;;;;;;;;5110924;28;20597;-77
2024/01/30 01:46:55;;;;;;;4.57;3.50;;;;;;;;;;5110348;28;20203;-77
2024/01/30 01:49:23;;;;;;;7.00;4.27;;;;;;;;;;5110530;28;20677;-77
2024/01/30 01:51:50;;;;;;;6.50;4.30;;;;;;;;;;5110426;28;20296;-76
2024/01/30 01:54:19;;;;;;;5.60;4.30;;;;;;;;;;5110454;28;20203;-77
2024/01/30 01:56:46;;;;;;;5.20;4.23;;;;;;;;;;5111806;28;20257;-76
2024/01/30 01:59:12;;;;;;;5.80;4.07;;;;;;;;;;5114131;28;20690;-77
2024/01/30 02:01:40;;;;;;;5.37;4.33;;;;;;;;;;5113996;28;20681;-76
2024/01/30 02:04:08;;;;;;;6.13;4.60;;;;;;;;;;5114303;28;20214;-77
2024/01/30 02:06:35;;;;;;;6.03;4.27;;;;;;;;;;5113790;28;20584;-77
2024/01/30 02:09:02;;;;;;;6.17;4.73;;;;;;;;;;5113676;28;20199;-76
2024/01/30 02:11:30;;;;;;;5.93;4.90;;;;;;;;;;5114316;28;20234;-77
2024/01/30 02:13:59;;;;;;;5.40;4.83;;;;;;;;;;5113152;28;20236;-77
2024/01/30 02:16:27;;;;;;;6.07;4.30;;;;;;;;;;5114020;28;20616;-77
2024/01/30 02:18:54;;;;;;;5.30;4.73;;;;;;;;;;5113782;28;20272;-76
2024/01/30 02:21:22;;;;;;;4.53;3.67;;;;;;;;;;5114019;28;20199;-77
2024/01/30 02:23:49;;;;;;;5.10;4.57;;;;;;;;;;5113676;28;20211;-76
2024/01/30 02:26:16;;;;;;;7.00;5.20;;;;;;;;;;5113650;28;20203;-76
2024/01/30 02:28:43;;;;;;;5.13;4.00;;;;;;;;;;5113203;28;20254;-77
2024/01/30 02:31:10;;;;;;;5.63;4.67;;;;;;;;;;5113797;28;20651;-76
2024/01/30 02:33:37;;;;;;;7.23;4.93;;;;;;;;;;5112696;28;20203;-76
2024/01/30 02:36:04;;;;;;;6.23;5.10;;;;;;;;;;5113743;28;20211;-76
2024/01/30 02:38:32;;;;;;;6.47;5.00;;;;;;;;;;5113456;28;20211;-77
2024/01/30 02:41:01;;;;;;;6.83;4.73;;;;;;;;;;5104349;28;20208;-77
2024/01/30 02:43:28;;;;;;;7.00;5.27;;;;;;;;;;5109822;28;20204;-77
2024/01/30 02:45:55;;;;;;;6.53;4.63;;;;;;;;;;5113397;28;20204;-76
2024/01/30 02:48:22;;;;;;;6.47;5.17;;;;;;;;;;5113308;28;20202;-77
2024/01/30 02:50:48;;;;;;;5.70;4.67;;;;;;;;;;5113585;28;20222;-76
2024/01/30 02:53:15;;;;;;;5.50;4.73;;;;;;;;;;5112560;28;20210;-76
2024/01/30 02:55:43;;;;;;;7.73;5.00;;;;;;;;;;5113187;28;20206;-76
2024/01/30 02:58:10;;;;;;;6.83;4.80;;;;;;;;;;5113298;28;20192;-76
2024/01/30 03:00:37;;;;;;;5.63;4.90;;;;;;;;;;5112805;28;20203;-77
2024/01/30 03:03:04;;;;;;;5.07;4.00;;;;;;;;;;5113324;28;20283;-77
2024/01/30 03:05:30;;;;;;;5.40;4.50;;;;;;;;;;5112986;28;20203;-76
2024/01/30 03:07:57;;;;;;;5.13;3.87;;;;;;;;;;5112491;28;20206;-77
2024/01/30 03:10:24;;;;;;;6.90;5.53;;;;;;;;;;5113096;28;20227;-76
2024/01/30 03:12:52;;;;;;;5.83;4.17;;;;;;;;;;5111878;28;20199;-77
2024/01/30 03:15:19;;;;;;;5.43;4.70;;;;;;;;;;5112715;28;20574;-77
2024/01/30 03:17:46;;;;;;;5.73;4.57;;;;;;;;;;5112920;28;20592;-77
2024/01/30 03:20:13;;;;;;;5.50;4.30;;;;;;;;;;5112918;28;20208;-77
2024/01/30 03:22:39;;;;;;;4.77;4.10;;;;;;;;;;5112331;28;20677;-77
2024/01/30 03:25:07;;;;;;;5.63;4.77;;;;;;;;;;5112522;28;20203;-77
2024/01/30 03:27:33;;;;;;;5.57;4.50;;;;;;;;;;5112783;28;20294;-77
2024/01/30 03:30:02;;;;;;;4.90;4.40;;;;;;;;;;5112437;28;20270;-77
2024/01/30 03:32:28;;;;;;;5.47;4.30;;;;;;;;;;5112230;28;20199;-77
2024/01/30 03:34:55;;;;;;;5.33;3.93;;;;;;;;;;5112017;28;20210;-77
2024/01/30 03:37:22;;;;;;;4.47;4.07;;;;;;;;;;5112328;28;20203;-77
2024/01/30 03:39:49;;;;;;;6.30;4.80;;;;;;;;;;5112189;28;20210;-77
2024/01/30 03:42:16;;;;;;;6.17;5.37;;;;;;;;;;5103554;28;20200;-77
2024/01/30 03:44:42;;;;;;;5.20;4.07;;;;;;;;;;5111906;28;20204;-77
2024/01/30 03:47:10;;;;;;;5.17;4.40;;;;;;;;;;5112206;28;20192;-77
2024/01/30 03:49:37;;;;;;;6.17;4.67;;;;;;;;;;5111465;28;20208;-77
2024/01/30 03:52:04;;;;;;;7.60;4.73;;;;;;;;;;5111997;28;20227;-77
2024/01/30 03:54:31;;;;;;;7.43;5.20;;;;;;;;;;5100948;28;20271;-78
2024/01/30 03:57:00;;;;;;;7.53;5.33;;;;;;;;;;5106802;28;20199;-77
2024/01/30 03:59:27;;;;;;;6.50;5.03;;;;;;;;;;5101870;28;20200;-77
2024/01/30 04:01:54;;;;;;;5.80;4.70;;;;;;;;;;5104899;28;20203;-77
2024/01/30 04:04:23;;;;;;;7.10;4.77;;;;;;;;;;5101740;28;20200;-77
2024/01/30 04:06:49;;;;;;;10.70;6.93;;;;;;;;;;5105384;28;20265;-77
2024/01/30 04:09:16;;;;;;;7.27;5.83;;;;;;;;;;5111564;28;20233;-77
2024/01/30 04:11:43;;;;;;;9.20;6.43;;;;;;;;;;5111503;28;20223;-77
2024/01/30 04:14:10;;;;;;;8.53;5.83;;;;;;;;;;5111292;28;20206;-77
2024/01/30 04:16:37;;;;;;;8.30;6.80;;;;;;;;;;5112044;28;20582;-77
2024/01/30 04:19:03;;;;;;;8.97;6.33;;;;;;;;;;5110945;28;20286;-77
2024/01/30 04:21:32;;;;;;;9.37;5.73;;;;;;;;;;5110733;28;20191;-78
2024/01/30 04:24:02;;;;;;;9.33;6.30;;;;;;;;;;5111944;28;20204;-77
2024/01/30 04:26:28;;;;;;;8.80;6.43;;;;;;;;;;5111728;28;20211;-76
2024/01/30 04:28:55;;;;;;;9.10;6.57;;;;;;;;;;5110732;28;20708;-77
2024/01/30 04:31:22;;;;;;;8.53;6.50;;;;;;;;;;5111329;28;20219;-77
2024/01/30 04:33:49;;;;;;;10.47;5.70;;;;;;;;;;5110563;28;20666;-76
2024/01/30 04:36:15;;;;;;;9.37;6.87;;;;;;;;;;5097685;28;20207;-76
2024/01/30 04:38:43;;;;;;;10.13;7.00;;;;;;;;;;5108408;28;20206;-75
2024/01/30 04:41:10;;;;;;;6.77;5.17;;;;;;;;;;5107474;28;20320;-76
2024/01/30 04:43:37;;;;;;;9.77;6.13;;;;;;;;;;5104717;28;20207;-77
2024/01/30 04:46:05;;;;;;;8.83;6.03;;;;;;;;;;5110548;28;20611;-77
2024/01/30 04:48:32;;;;;;;7.07;5.47;;;;;;;;;;5110325;28;20702;-77
2024/01/30 04:51:02;;;;;;;8.00;5.87;;;;;;;;;;5110852;28;20599;-77
2024/01/30 04:53:31;;;;;;;7.93;6.03;;;;;;;;;;5111152;28;20203;-77
2024/01/30 04:55:59;;;;;;;9.83;6.47;;;;;;;;;;5110748;28;20207;-77
2024/01/30 04:58:26;;;;;;;9.07;6.50;;;;;;;;;;5110377;28;20208;-78
2024/01/30 05:00:52;;;;;;;11.17;6.93;;;;;;;;;;5108589;28;20720;-77
2024/01/30 05:03:22;;;;;;;12.53;5.63;;;;;;;;;;5109699;28;20630;-77
2024/01/30 05:05:49;;;;;;;8.23;6.10;;;;;;;;;;5109052;28;20219;-77
2024/01/30 05:08:15;;;;;;;9.57;6.00;;;;;;;;;;5109697;28;20631;-78
2024/01/30 05:10:42;;;;;;;10.10;6.13;;;;;;;;;;5105461;28;20211;-77
2024/01/30 05:13:13;;;;;;;7.73;6.10;;;;;;;;;;5100031;28;20673;-77
2024/01/30 05:15:40;;;;;;;7.07;5.73;;;;;;;;;;5109569;28;20626;-77
2024/01/30 05:18:07;;;;;;;10.40;6.80;;;;;;;;;;5109903;28;20235;-77
2024/01/30 05:20:33;;;;;;;9.93;6.23;;;;;;;;;;5109471;28;20191;-77
2024/01/30 05:23:00;;;;;;;9.30;6.80;;;;;;;;;;5101035;28;20200;-77
2024/01/30 05:25:27;;;;;;;14.33;9.73;;;;;;;;;;5104894;28;20235;-77
2024/01/30 05:27:55;;;;;;;7.93;5.77;;;;;;;;;;5109277;28;20264;-76
2024/01/30 05:30:23;;;;;;;9.63;7.27;;;;;;;;;;5109227;28;20897;-77
2024/01/30 05:32:50;;;;;;;9.93;6.57;;;;;;;;;;5100610;28;20224;-77
2024/01/30 05:35:17;;;;;;;7.63;6.10;;;;;;;;;;5102081;28;20287;-77
2024/01/30 05:37:43;;;;;;;6.73;5.20;;;;;;;;;;5112837;28;20203;-77
2024/01/30 05:40:11;;;;;;;8.07;7.07;;;;;;;;;;5104931;28;20212;-79
2024/01/30 05:42:38;;;;;;;8.50;6.47;;;;;;;;;;5108234;28;20199;-79
2024/01/30 05:45:06;;;;;;;11.17;7.00;;;;;;;;;;5109765;28;20203;-80
2024/01/30 05:47:37;;;;;;;12.30;7.47;;;;;;;;;;5114509;28;20203;-80
2024/01/30 05:50:04;;;;;;;9.10;6.90;;;;;;;;;;5114285;28;20199;-80
2024/01/30 05:52:31;;;;;;;8.97;6.40;;;;;;;;;;5114216;28;20219;-81
2024/01/30 05:55:00;;;;;;;9.07;6.50;;;;;;;;;;5113954;28;20214;-79
2024/01/30 05:57:27;;;;;;;9.23;7.07;;;;;;;;;;5114281;28;20268;-79
2024/01/30 05:59:54;;;;;;;10.87;7.33;;;;;;;;;;5113853;28;21016;-81
2024/01/30 06:02:21;;;;;;;8.93;6.20;;;;;;;;;;5100313;28;20550;-80
2024/01/30 06:04:49;;;;;;;9.17;6.13;;;;;;;;;;5101754;28;20607;-80
2024/01/30 06:07:17;;;;;;;15.63;11.10;;;;;;;;;;5112870;28;20203;-79
2024/01/30 06:09:45;;;;;;;9.93;6.40;;;;;;;;;;5114095;28;20252;-79
2024/01/30 06:12:12;;;;;;;9.80;6.40;;;;;;;;;;5114237;28;20224;-80
2024/01/30 06:14:39;;;;;;;14.80;9.60;;;;;;;;;;5113963;28;20210;-79
2024/01/30 06:17:06;;;;;;;36.27;17.37;;;;;;;;;;5100049;28;20200;-79
2024/01/30 06:19:33;;;;;;;16.00;10.70;;;;;;;;;;5114109;28;20214;-79
2024/01/30 06:22:02;;;;;;;17.10;13.17;;;;;;;;;;5100175;28;20199;-79
2024/01/30 06:24:28;;;;;;;7.67;6.57;;;;;;;;;;5093825;28;20269;-79
2024/01/30 06:26:55;;;;;;;9.17;7.50;;;;;;;;;;5108220;28;20199;-80
2024/01/30 06:29:24;;;;;;;7.97;6.40;;;;;;;;;;5113750;28;20234;-80
2024/01/30 06:31:51;;;;;;;9.17;7.77;;;;;;;;;;5100231;28;20235;-79
2024/01/30 06:34:18;;;;;;;8.20;6.17;;;;;;;;;;5113593;28;20568;-80
2024/01/30 06:36:45;;;;;;;6.43;5.50;;;;;;;;;;5113294;28;20202;-79
2024/01/30 06:39:13;;;;;;;6.87;5.53;;;;;;;;;;5104666;28;20211;-79
2024/01/30 06:41:39;;;;;;;6.83;5.13;;;;;;;;;;5096431;28;20204;-79
2024/01/30 06:44:08;;;;;;;7.33;5.73;;;;;;;;;;5103533;28;20670;-80
2024/01/30 06:46:35;;;;;;;6.73;5.20;;;;;;;;;;5109384;28;20207;-80
2024/01/30 06:49:02;;;;;;;10.97;5.90;;;;;;;;;;5113982;28;20252;-79
2024/01/30 06:51:29;;;;;;;7.70;5.13;;;;;;;;;;5113516;28;20238;-80
2024/01/30 06:53:58;;;;;;;8.30;5.50;;;;;;;;;;5112777;28;20701;-80
2024/01/30 06:56:27;;;;;;;6.70;4.20;;;;;;;;;;5110165;28;20625;-80
2024/01/30 06:58:53;;;;;;;6.13;4.67;;;;;;;;;;5104056;28;20647;-80
2024/01/30 07:01:20;;;;;;;8.93;5.67;;;;;;;;;;5113637;28;20196;-80
2024/01/30 07:03:47;;;;;;;5.10;4.37;;;;;;;;;;5113248;28;20283;-80
2024/01/30 07:06:15;;;;;;;45.07;26.20;;;;;;;;;;5113139;28;20200;-80
2024/01/30 07:08:41;;;;;;;12.10;8.53;;;;;;;;;;5101717;28;20231;-81
2024/01/30 07:11:08;;;;;;;10.83;7.70;;;;;;;;;;5097608;28;20749;-80
2024/01/30 07:13:36;;;;;;;8.33;6.30;;;;;;;;;;5113230;28;20202;-80
2024/01/30 07:16:03;;;;;;;7.13;5.07;;;;;;;;;;5112857;28;20635;-80
2024/01/30 07:18:30;;;;;;;6.20;4.73;;;;;;;;;;5100924;28;20208;-80
2024/01/30 07:20:57;;;;;;;9.57;5.23;;;;;;;;;;5111693;28;20603;-79
2024/01/30 07:23:24;;;;;;;6.30;5.10;;;;;;;;;;5113179;28;20650;-79
2024/01/30 07:25:51;;;;;;;6.57;5.20;;;;;;;;;;5112077;28;20239;-80
2024/01/30 07:28:17;;;;;;;5.10;4.60;;;;;;;;;;5112786;28;20285;-79
2024/01/30 07:30:47;;;;;;;6.77;4.40;;;;;;;;;;5099560;28;20227;-79
2024/01/30 07:33:14;;;;;;;5.07;4.30;;;;;;;;;;5112728;28;20258;-80
2024/01/30 07:35:40;;;;;;;6.07;4.23;;;;;;;;;;5111226;28;20207;-80
2024/01/30 07:38:07;;;;;;;11.43;5.50;;;;;;;;;;5100225;28;20211;-79
2024/01/30 07:40:34;;;;;;;8.70;4.80;;;;;;;;;;5106206;28;20262;-80
2024/01/30 07:43:03;;;;;;;5.83;5.00;;;;;;;;;;5105594;28;20560;-79
2024/01/30 07:45:32;;;;;;;6.00;4.70;;;;;;;;;;5105541;28;20212;-80
2024/01/30 07:48:00;;;;;;;6.50;3.90;;;;;;;;;;5105790;28;20310;-80
2024/01/30 07:50:27;;;;;;;4.33;3.60;;;;;;;;;;5099232;28;20635;-80
2024/01/30 07:52:55;;;;;;;6.60;4.83;;;;;;;;;;5111829;28;20227;-80
2024/01/30 07:55:24;;;;;;;5.23;4.30;;;;;;;;;;5104511;28;20212;-80
2024/01/30 07:57:51;;;;;;;6.50;5.47;;;;;;;;;;5106322;28;20207;-81
2024/01/30 08:00:19;;;;;;;7.27;5.73;;;;;;;;;;5112422;28;20195;-81
2024/01/30 08:02:46;;;;;;;4.90;4.33;;;;;;;;;;5112619;28;20199;-81
2024/01/30 08:05:15;;;;;;;6.53;5.77;;;;;;;;;;5112208;28;20644;-81
2024/01/30 08:07:41;;;;;;;8.20;4.97;;;;;;;;;;5112161;28;20207;-81
2024/01/30 08:10:09;;;;;;;7.17;5.63;;;;;;;;;;5112410;28;20203;-80
2024/01/30 08:12:36;;;;;;;7.43;4.77;;;;;;;;;;5111597;28;20705;-80
2024/01/30 08:15:03;;;;;;;4.63;4.13;;;;;;;;;;5111880;28;20207;-80
2024/01/30 08:17:29;;;;;;;3.90;3.27;;;;;;;;;;5111827;28;20617;-80
2024/01/30 08:19:59;;;;;;;7.57;4.63;;;;;;;;;;5112092;28;20203;-80
2024/01/30 08:22:28;;;;;;;6.07;3.83;;;;;;;;;;5099320;28;20211;-79
2024/01/30 08:24:55;;;;;;;5.43;4.00;;;;;;;;;;5111940;28;20594;-80
2024/01/30 08:27:22;;;;;;;3.80;3.40;;;;;;;;;;5112042;28;20203;-79
2024/01/30 08:29:50;;;;;;;5.07;3.73;;;;;;;;;;5111978;28;20253;-79
2024/01/30 08:32:17;;;;;;;5.53;4.83;;;;;;;;;;5111425;28;20701;-80
2024/01/30 08:34:43;;;;;;;6.70;5.07;;;;;;;;;;5111860;28;20217;-80
2024/01/30 08:37:10;;;;;;;3.93;3.20;;;;;;;;;;5111670;28;20202;-79
2024/01/30 08:39:38;;;;;;;3.80;3.37;;;;;;;;;;5099668;28;20204;-79
2024/01/30 08:42:06;;;;;;;5.43;3.17;;;;;;;;;;5091420;28;20636;-79
2024/01/30 08:44:33;;;;;;;5.73;3.77;;;;;;;;;;5103474;28;20264;-78
2024/01/30 08:47:00;;;;;;;7.20;3.37;;;;;;;;;;5105980;28;20287;-79
2024/01/30 08:49:27;;;;;;;6.60;3.97;;;;;;;;;;5104055;28;20203;-79
2024/01/30 08:51:53;;;;;;;4.83;4.17;;;;;;;;;;5105231;28;20188;-79
2024/01/30 08:54:21;;;;;;;5.07;3.53;;;;;;;;;;5104227;28;20294;-79
2024/01/30 08:56:49;;;;;;;6.27;3.80;;;;;;;;;;5111162;28;20210;-80
2024/01/30 08:59:16;;;;;;;5.87;3.33;;;;;;;;;;5098093;28;20196;-84
2024/01/30 09:01:42;;;;;;;4.20;3.00;;;;;;;;;;5104449;28;20269;-84
2024/01/30 09:04:09;;;;;;;3.77;3.23;;;;;;;;;;5091483;28;20208;-81
2024/01/30 09:06:39;;;;;;;3.97;2.97;;;;;;;;;;5112528;28;20272;-79
2024/01/30 09:09:06;;;;;;;3.60;3.07;;;;;;;;;;5101836;28;20192;-80
2024/01/30 09:11:32;;;;;;;4.97;3.80;;;;;;;;;;5115375;28;20271;-80
2024/01/30 09:14:01;;;;;;;4.50;3.17;;;;;;;;;;5115244;28;20230;-79
2024/01/30 09:16:29;;;;;;;3.23;3.00;;;;;;;;;;5115561;28;20208;-79
2024/01/30 09:18:59;;;;;;;2.57;2.37;;;;;;;;;;5115090;28;20203;-79
2024/01/30 09:21:26;;;;;;;4.17;3.33;;;;;;;;;;5115260;28;20245;-79
2024/01/30 09:23:55;;;;;;;5.10;3.00;;;;;;;;;;5115510;28;20211;-79
2024/01/30 09:26:22;;;;;;;5.80;3.50;;;;;;;;;;5105687;28;20261;-80
2024/01/30 09:28:49;;;;;;;4.60;3.67;;;;;;;;;;5095282;28;20208;-79
2024/01/30 09:31:17;;;;;;;3.93;3.57;;;;;;;;;;5105114;28;20666;-80
2024/01/30 09:33:47;;;;;;;4.40;3.93;;;;;;;;;;5114666;28;20223;-79
2024/01/30 09:36:15;;;;;;;3.30;3.00;;;;;;;;;;5104346;28;20254;-79
2024/01/30 09:38:41;;;;;;;5.73;5.13;;;;;;;;;;5112661;28;20231;-80
2024/01/30 09:41:10;;;;;;;7.13;4.47;;;;;;;;;;5114927;28;20256;-79
2024/01/30 09:43:39;;;;;;;5.10;4.17;;;;;;;;;;5101564;28;20258;-80
2024/01/30 09:46:06;;;;;;;5.43;4.87;;;;;;;;;;5102826;28;20219;-80
2024/01/30 09:48:37;;;;;;;6.50;4.97;;;;;;;;;;5113690;28;20631;-80
2024/01/30 09:51:04;;;;;;;4.27;3.53;;;;;;;;;;5101842;28;20227;-79
2024/01/30 09:53:31;;;;;;;8.13;4.20;;;;;;;;;;5100924;28;20230;-80
2024/01/30 09:55:59;;;;;;;6.00;4.43;;;;;;;;;;5114304;28;20200;-81
2024/01/30 09:58:26;;;;;;;4.83;3.97;;;;;;;;;;5108148;28;20212;-81
2024/01/30 10:00:53;;;;;;;5.57;4.43;;;;;;;;;;5094824;28;20253;-80
2024/01/30 10:03:21;;;;;;;8.37;6.37;;;;;;;;;;5114794;28;20200;-80
2024/01/30 10:05:52;;;;;;;6.37;5.17;;;;;;;;;;5100633;28;20686;-80
2024/01/30 10:08:20;;;;;;;7.13;4.30;;;;;;;;;;5114400;28;20195;-80
2024/01/30 10:10:48;;;;;;;7.03;5.37;;;;;;;;;;5112357;28;20203;-79
2024/01/30 10:13:15;;;;;;;6.20;4.37;;;;;;;;;;5102620;28;20227;-80
2024/01/30 10:15:42;;;;;;;6.20;5.00;;;;;;;;;;5114401;28;20214;-80
2024/01/30 10:18:09;;;;;;;5.40;4.53;;;;;;;;;;5113048;28;20211;-79
2024/01/30 10:20:36;;;;;;;7.17;4.67;;;;;;;;;;5113565;28;20207;-80
2024/01/30 10:23:05;;;;;;;9.60;4.20;;;;;;;;;;5114153;28;20646;-79
2024/01/30 10:25:32;;;;;;;4.63;3.57;;;;;;;;;;5111318;28;20976;-79
2024/01/30 10:28:00;;;;;;;7.37;5.83;;;;;;;;;;5103714;28;20279;-80
2024/01/30 10:30:28;;;;;;;5.83;5.23;;;;;;;;;;5110413;28;20232;-80
2024/01/30 10:32:55;;;;;;;7.70;4.60;;;;;;;;;;5093611;28;20251;-79
2024/01/30 10:35:22;;;;;;;11.60;6.67;;;;;;;;;;5110655;28;20191;-80
2024/01/30 10:37:49;;;;;;;31.87;17.23;;;;;;;;;;5114364;28;20207;-81
2024/01/30 10:40:17;;;;;;;15.23;10.17;;;;;;;;;;5113695;28;20196;-80
2024/01/30 10:42:45;;;;;;;7.17;5.70;;;;;;;;;;5113926;28;20211;-79
2024/01/30 10:45:13;;;;;;;11.60;6.27;;;;;;;;;;5113880;28;20207;-80
2024/01/30 10:47:41;;;;;;;13.10;8.37;;;;;;;;;;5113376;28;20204;-79
2024/01/30 10:50:10;;;;;;;15.97;9.30;;;;;;;;;;5109146;28;20192;-80
2024/01/30 10:52:38;;;;;;;33.53;18.90;;;;;;;;;;5105233;28;20204;-80
2024/01/30 10:55:07;;;;;;;24.17;13.87;;;;;;;;;;5113757;28;20199;-80
2024/01/30 10:57:35;;;;;;;7.07;5.37;;;;;;;;;;5113388;28;20646;-80
2024/01/30 11:00:05;;;;;;;6.03;4.37;;;;;;;;;;5113175;28;20192;-80
2024/01/30 11:02:33;;;;;;;15.03;8.10;;;;;;;;;;5113260;28;20695;-80
2024/01/30 11:05:01;;;;;;;8.03;5.50;;;;;;;;;;5099682;28;20195;-78
2024/01/30 11:07:29;;;;;;;9.37;7.43;;;;;;;;;;5099946;28;20208;-80
2024/01/30 11:10:02;;;;;;;11.13;7.10;;;;;;;;;;5106103;28;20231;-80
2024/01/30 11:12:29;;;;;;;7.60;6.27;;;;;;;;;;5095040;28;20234;-80
2024/01/30 11:15:05;;;;;;;6.60;4.37;;;;;;;;;;5113348;28;20210;-80
2024/01/30 11:17:51;;;;;;;6.33;5.57;;;;;;;;;;5109898;28;20287;-80
2024/01/30 11:20:22;;;;;;;6.63;4.50;;;;;;;;;;5092580;28;20257;-80
2024/01/30 11:22:52;;;;;;;8.90;6.63;;;;;;;;;;5099942;28;20210;-79
2024/01/30 11:25:21;;;;;;;7.07;6.07;;;;;;;;;;5112942;28;20203;-79
2024/01/30 11:27:48;;;;;;;6.73;6.00;;;;;;;;;;5112747;28;20733;-80
2024/01/30 11:30:24;;;;;;;9.70;5.77;;;;;;;;;;5112173;28;20604;-80
2024/01/30 11:33:06;;;;;;;8.63;5.50;;;;;;;;;;5113325;28;20203;-80
2024/01/30 11:35:34;;;;;;;4.80;4.23;;;;;;;;;;5099244;28;20256;-80
2024/01/30 11:38:02;;;;;;;5.23;4.37;;;;;;;;;;5112635;28;20214;-80
2024/01/30 11:40:29;;;;;;;5.50;4.57;;;;;;;;;;5112547;28;20208;-80
2024/01/30 11:42:59;;;;;;;7.77;5.13;;;;;;;;;;5112262;28;20204;-79
2024/01/30 11:45:27;;;;;;;4.80;4.27;;;;;;;;;;5092556;28;20220;-80
2024/01/30 11:47:54;;;;;;;6.23;4.47;;;;;;;;;;5106563;28;20203;-80
2024/01/30 11:50:21;;;;;;;7.30;4.30;;;;;;;;;;5112629;28;20195;-80
2024/01/30 11:52:48;;;;;;;5.83;4.57;;;;;;;;;;5112093;28;20207;-80
2024/01/30 11:55:15;;;;;;;4.37;3.97;;;;;;;;;;5099762;28;20633;-80
2024/01/30 11:57:44;;;;;;;6.07;4.23;;;;;;;;;;5112132;28;20276;-80
2024/01/30 12:00:16;;;;;;;6.07;5.13;;;;;;;;;;5111848;28;20195;-80
2024/01/30 12:02:44;;;;;;;4.57;4.17;;;;;;;;;;5112150;28;20586;-79
2024/01/30 12:05:11;;;;;;;6.47;4.67;;;;;;;;;;5112207;28;20199;-80
2024/01/30 12:07:38;;;;;;;4.70;3.87;;;;;;;;;;5112031;28;20219;-79
2024/01/30 12:10:07;;;;;;;5.60;4.53;;;;;;;;;;5111676;28;20203;-80
2024/01/30 12:12:37;;;;;;;7.40;4.53;;;;;;;;;;5098350;28;20191;-80
2024/01/30 12:15:04;;;;;;;6.90;4.07;;;;;;;;;;5112196;28;20227;-80
2024/01/30 12:17:33;;;;;;;4.70;3.73;;;;;;;;;;5112104;28;20619;-80
2024/01/30 12:20:09;;;;;;;5.53;4.03;;;;;;;;;;5112191;28;20203;-80
2024/01/30 12:22:38;;;;;;;6.27;4.60;;;;;;;;;;5111400;28;20252;-80
2024/01/30 12:25:06;;;;;;;5.00;4.10;;;;;;;;;;5111251;28;20289;-80
2024/01/30 12:27:33;;;;;;;4.90;4.07;;;;;;;;;;5105744;28;20215;-80
2024/01/30 12:30:00;;;;;;;3.70;3.40;;;;;;;;;;5091533;28;20243;-80
2024/01/30 12:32:27;;;;;;;3.60;3.13;;;;;;;;;;5097474;28;20635;-80
2024/01/30 12:34:59;;;;;;;4.10;3.43;;;;;;;;;;5111685;28;20701;-80
2024/01/30 12:37:29;;;;;;;6.90;3.63;;;;;;;;;;5091370;28;20212;-80
2024/01/30 12:39:59;;;;;;;7.00;5.87;;;;;;;;;;5091331;28;20204;-80
2024/01/30 12:42:28;;;;;;;5.73;4.27;;;;;;;;;;5090796;28;20208;-80
2024/01/30 12:44:55;;;;;;;16.70;10.00;;;;;;;;;;5091446;28;20702;-80
2024/01/30 12:47:22;;;;;;;6.33;3.73;;;;;;;;;;5100194;28;20742;-80
2024/01/30 12:49:53;;;;;;;6.10;3.70;;;;;;;;;;5097842;28;20667;-80
2024/01/30 12:52:21;;;;;;;6.50;4.90;;;;;;;;;;5101809;28;20208;-80
2024/01/30 12:54:49;;;;;;;6.07;5.37;;;;;;;;;;5107723;28;20231;-79
2024/01/30 12:57:16;;;;;;;5.67;4.13;;;;;;;;;;5111501;28;20622;-80
2024/01/30 12:59:43;;;;;;;6.97;4.47;;;;;;;;;;5111388;28;20315;-80
2024/01/30 13:02:10;;;;;;;5.77;4.87;;;;;;;;;;5111785;28;20264;-79
2024/01/30 13:04:37;;;;;;;4.80;4.27;;;;;;;;;;5111313;28;20195;-79
2024/01/30 13:07:04;;;;;;;7.23;5.13;;;;;;;;;;5111761;28;20638;-80
2024/01/30 13:09:31;;;;;;;5.93;4.80;;;;;;;;;;5111400;28;20210;-80
2024/01/30 13:11:59;;;;;;;8.50;5.53;;;;;;;;;;5111464;28;20207;-80
2024/01/30 13:14:26;;;;;;;4.60;3.73;;;;;;;;;;5110887;28;20284;-80
2024/01/30 13:16:53;;;;;;;6.30;5.03;;;;;;;;;;5099731;28;20217;-80
2024/01/30 13:19:22;;;;;;;4.47;4.07;;;;;;;;;;5110105;28;20203;-80
2024/01/30 13:21:49;;;;;;;5.37;4.83;;;;;;;;;;5111269;28;20212;-80
2024/01/30 13:24:15;;;;;;;6.87;4.20;;;;;;;;;;5091612;28;20208;-80
2024/01/30 13:26:44;;;;;;;5.33;4.03;;;;;;;;;;5103769;28;20665;-80
2024/01/30 13:29:12;;;;;;;5.20;4.30;;;;;;;;;;5110532;28;20631;-80
2024/01/30 13:31:39;;;;;;;5.73;4.87;;;;;;;;;;5111064;28;20682;-79
2024/01/30 13:34:06;;;;;;;4.13;3.73;;;;;;;;;;5097778;28;20653;-81
2024/01/30 13:36:33;;;;;;;8.60;4.20;;;;;;;;;;5097460;28;20214;-80
2024/01/30 13:39:00;;;;;;;3.97;3.47;;;;;;;;;;5098121;28;20210;-79
2024/01/30 13:41:27;;;;;;;5.93;4.70;;;;;;;;;;5111077;28;20574;-80
2024/01/30 13:43:54;;;;;;;5.37;4.87;;;;;;;;;;5110801;28;20207;-80
2024/01/30 13:46:22;;;;;;;4.47;4.07;;;;;;;;;;5110620;28;20200;-80
2024/01/30 13:48:49;;;;;;;4.53;3.80;;;;;;;;;;5103444;28;20211;-80
2024/01/30 13:51:17;;;;;;;4.87;3.50;;;;;;;;;;5105452;28;20257;-80
2024/01/30 13:53:43;;;;;;;6.07;4.20;;;;;;;;;;5113158;28;20222;-80
2024/01/30 13:56:10;;;;;;;4.23;3.83;;;;;;;;;;5114236;28;20205;-79
2024/01/30 13:58:37;;;;;;;4.00;3.60;;;;;;;;;;5106290;28;20207;-80
2024/01/30 14:01:04;;;;;;;4.90;4.30;;;;;;;;;;5109647;28;20674;-80
2024/01/30 14:03:32;;;;;;;3.67;3.27;;;;;;;;;;5113926;28;20196;-80
2024/01/30 14:06:00;;;;;;;4.43;4.03;;;;;;;;;;5114129;28;20246;-80
2024/01/30 14:08:27;;;;;;;5.17;4.23;;;;;;;;;;5114500;28;20215;-82
2024/01/30 14:10:55;;;;;;;6.33;3.83;;;;;;;;;;5114309;28;20206;-80
2024/01/30 14:13:22;;;;;;;4.50;4.00;;;;;;;;;;5103685;28;20196;-79
2024/01/30 14:15:49;;;;;;;5.53;5.00;;;;;;;;;;5111115;28;20199;-80
2024/01/30 14:18:16;;;;;;;4.40;3.83;;;;;;;;;;5104190;28;20292;-80
2024/01/30 14:20:44;;;;;;;5.50;3.83;;;;;;;;;;5097818;28;20203;-81
2024/01/30 14:23:11;;;;;;;8.37;4.30;;;;;;;;;;5113030;28;20200;-80
2024/01/30 14:25:37;;;;;;;4.00;3.70;;;;;;;;;;5100750;28;20207;-79
2024/01/30 14:28:05;;;;;;;4.33;3.93;;;;;;;;;;5103945;28;20208;-80
2024/01/30 14:30:32;;;;;;;5.87;5.27;;;;;;;;;;5107223;28;20224;-80
2024/01/30 14:32:59;;;;;;;6.87;5.00;;;;;;;;;;5104670;28;20230;-84
2024/01/30 14:35:25;;;;;;;8.83;6.23;;;;;;;;;;5113748;28;20613;-79
2024/01/30 14:37:53;;;;;;;7.40;5.30;;;;;;;;;;5114037;28;20203;-79
2024/01/30 14:40:21;;;;;;;6.13;5.53;;;;;;;;;;5109252;28;20204;-80
2024/01/30 14:42:48;;;;;;;5.23;4.73;;;;;;;;;;5093751;28;20644;-80